Alberta, VA (23821)

10:59 AM EDT on July 30, 2016 (GMT -0400)
Dundas | | Change Station

Elev 466 ft 36.92 °N, 78.02 °W | Updated 10 minutes ago

Mostly Cloudy
Mostly Cloudy
81.7 °F
Feels Like 90 °F
N
2.7
Wind Variable Wind from East

Today
High -- | Low -- °F
--% Chance of Precip.
Yesterday
High -- | Low -- °F
Precip. -- in
Pressure 30.05 in
Visibility 10.0 miles
Clouds Scattered Clouds 6000 ft
Mostly Cloudy 11000 ft
Heat Index 90 °F
Dew Point 77 °F
Humidity 86%
Rainfall 0.02 in
Snow Depth Not available.
6:15 AM 8:19 PM
Waning Crescent, 13% visible
METAR KAVC 301456Z AUTO 16004KT 10SM SCT060 BKN110 28/24 A3005 RMK AO2 T02830242
Pressure 30.05 in
Visibility 10.0 miles
Clouds Scattered Clouds 6000 ft
Mostly Cloudy 11000 ft
Heat Index 90 °F
Dew Point 77 °F
Humidity 86%
Rainfall 0.02 in
Snow Depth Not available.
6:15 AM 8:19 PM
Waning Crescent, 13% visible
METAR KAVC 301456Z AUTO 16004KT 10SM SCT060 BKN110 28/24 A3005 RMK AO2 T02830242

10-Day Weather Forecast

Almanac

Astronomy

Jul. 30, 2016 Rise Set
Actual Time
Civil Twilight
Nautical Twilight
Astronomical Twilight
Moon
Length of Visible Light
Length of Day
Tomorrow will be .
, % of the Moon is Illuminated

Today's Extremes

State Highs State Lows

Community

WunderPhotos

Upload Photos

1,928,565 photos uploaded!

WunderBlog® & News

Nearby

Air Quality

  Air Quality AQ Index Pollutant
Not available.

Snow Depth

Station Depth Elevation

Earthquake Activity

City Distance Mag. Time & Date
Minimum magnitude displayed is 2.5.

Coastal Water Temperatures

Place Temperature

Stations

Nearby Weather Stations

Station Location Temp. Windchill Dew Point Humidity Wind Precip. Elev Updated Type
                   

Watches & Warnings

There are currently no watches in effect.